createdAt,value
2022-11-24T00:00:10.284Z,0.73
2022-11-24T00:02:38.960Z,0.74
2022-11-24T00:05:08.815Z,0.74
2022-11-24T00:07:37.197Z,0.72
2022-11-24T00:10:06.122Z,0.72
2022-11-24T00:12:34.435Z,0.72
2022-11-24T00:15:04.211Z,0.73
2022-11-24T00:17:33.270Z,0.72
2022-11-24T00:20:01.594Z,0.74
2022-11-24T00:22:29.967Z,0.75
2022-11-24T00:24:58.262Z,0.77
2022-11-24T00:27:26.577Z,0.77
2022-11-24T00:29:54.893Z,0.77
2022-11-24T00:32:24.592Z,0.77
2022-11-24T00:34:52.911Z,0.78
2022-11-24T00:37:21.225Z,0.78
2022-11-24T00:39:49.593Z,0.79
2022-11-24T00:42:18.558Z,0.80
2022-11-24T00:44:46.918Z,0.81
2022-11-24T00:47:15.324Z,0.79
2022-11-24T00:49:45.251Z,0.81
2022-11-24T00:52:13.553Z,0.81
2022-11-24T00:54:41.869Z,0.83
2022-11-24T00:57:10.342Z,0.84
2022-11-24T00:59:39.594Z,0.81
2022-11-24T01:02:07.982Z,0.80
2022-11-24T01:04:36.915Z,0.77
2022-11-24T01:07:06.759Z,0.77
2022-11-24T01:09:35.437Z,0.77
2022-11-24T01:12:04.274Z,0.77
2022-11-24T01:14:34.023Z,0.78
2022-11-24T01:17:02.537Z,0.76
2022-11-24T01:19:31.067Z,0.73
2022-11-24T01:21:59.399Z,0.73
2022-11-24T01:24:29.146Z,0.71
2022-11-24T01:26:57.469Z,0.68
2022-11-24T01:29:25.910Z,0.65
2022-11-24T01:31:54.242Z,0.63
2022-11-24T01:34:22.853Z,0.63
2022-11-24T01:36:51.259Z,0.59
2022-11-24T01:39:19.598Z,0.62
2022-11-24T01:41:49.301Z,0.61
2022-11-24T01:44:22.473Z,0.60
2022-11-24T01:46:54.295Z,0.58
2022-11-24T01:49:26.902Z,0.62
2022-11-24T01:51:59.738Z,0.64
2022-11-24T01:54:31.814Z,0.60
2022-11-24T01:57:06.804Z,0.59
2022-11-24T01:59:35.125Z,0.56
2022-11-24T02:02:03.724Z,0.56
2022-11-24T02:04:35.099Z,0.56
2022-11-24T02:07:07.064Z,0.52
2022-11-24T02:09:41.806Z,0.54
2022-11-24T02:12:11.786Z,0.54
2022-11-24T02:14:42.923Z,0.54
2022-11-24T02:17:11.313Z,0.55
2022-11-24T02:19:50.166Z,0.53
2022-11-24T02:22:26.024Z,0.52
2022-11-24T02:25:04.306Z,0.51
2022-11-24T02:27:34.110Z,0.50
2022-11-24T02:30:02.633Z,0.53
2022-11-24T02:32:34.001Z,0.52
2022-11-24T02:35:03.041Z,0.52
2022-11-24T02:37:31.504Z,0.50
2022-11-24T02:39:59.931Z,0.50
2022-11-24T02:42:32.397Z,0.47
2022-11-24T02:45:02.580Z,0.48
2022-11-24T02:47:30.952Z,0.45
2022-11-24T02:49:59.285Z,0.50
2022-11-24T02:52:27.601Z,0.48
2022-11-24T02:54:55.918Z,0.47
2022-11-24T02:57:24.391Z,0.48
2022-11-24T02:59:52.857Z,0.44
2022-11-24T03:02:22.640Z,0.44
2022-11-24T03:04:51.232Z,0.45
2022-11-24T03:07:19.679Z,0.41
2022-11-24T03:09:48.040Z,0.38
2022-11-24T03:12:16.409Z,0.38
2022-11-24T03:14:44.780Z,0.41
2022-11-24T03:17:13.065Z,0.43
2022-11-24T03:19:42.755Z,0.42
2022-11-24T03:22:11.098Z,0.41
2022-11-24T03:24:44.640Z,0.38
2022-11-24T03:27:13.234Z,0.41
2022-11-24T03:29:41.793Z,0.42
2022-11-24T03:32:10.285Z,0.44
2022-11-24T03:34:38.568Z,0.43
2022-11-24T03:37:08.615Z,0.41
2022-11-24T03:39:36.913Z,0.41
2022-11-24T03:42:05.632Z,0.42
2022-11-24T03:44:34.137Z,0.42
2022-11-24T03:47:02.658Z,0.42
2022-11-24T03:49:31.103Z,0.42
2022-11-24T03:52:02.679Z,0.41
2022-11-24T03:54:36.423Z,0.43
2022-11-24T03:57:04.917Z,0.44
2022-11-24T03:59:33.299Z,0.42
2022-11-24T04:02:01.713Z,0.41
2022-11-24T04:04:30.217Z,0.39
2022-11-24T04:06:58.554Z,0.35
2022-11-24T04:09:26.917Z,0.35
2022-11-24T04:12:14.114Z,0.32
2022-11-24T04:14:42.414Z,0.33
2022-11-24T04:17:10.749Z,0.27
2022-11-24T04:19:39.053Z,0.29
2022-11-24T04:22:07.406Z,0.29
2022-11-24T04:24:36.015Z,0.32
2022-11-24T04:27:05.859Z,0.27
2022-11-24T04:29:34.246Z,0.25
2022-11-24T04:32:02.576Z,0.26
2022-11-24T04:34:31.282Z,0.27
2022-11-24T04:36:59.797Z,0.23
2022-11-24T04:39:28.593Z,0.24
2022-11-24T04:41:57.444Z,0.25
2022-11-24T04:44:27.156Z,0.27
2022-11-24T04:46:55.629Z,0.26
2022-11-24T04:49:24.069Z,0.26
2022-11-24T04:51:52.413Z,0.29
2022-11-24T04:54:20.704Z,0.28
2022-11-24T04:56:52.147Z,0.28
2022-11-24T04:59:20.990Z,0.29
2022-11-24T05:01:50.732Z,0.26
2022-11-24T05:04:21.342Z,0.24
2022-11-24T05:06:49.791Z,0.23
2022-11-24T05:09:18.532Z,0.22
2022-11-24T05:11:46.854Z,0.21
2022-11-24T05:14:15.194Z,0.21
2022-11-24T05:16:43.499Z,0.21
2022-11-24T05:19:13.348Z,0.23
2022-11-24T05:21:41.997Z,0.22
2022-11-24T05:24:11.516Z,0.22
2022-11-24T05:26:39.829Z,0.23
2022-11-24T05:29:08.138Z,0.21
2022-11-24T05:31:36.513Z,0.22
2022-11-24T05:34:05.354Z,0.20
2022-11-24T05:36:54.932Z,0.17
2022-11-24T05:39:23.359Z,0.12
2022-11-24T05:41:51.816Z,0.17
2022-11-24T05:44:20.216Z,0.16
2022-11-24T05:46:48.654Z,0.16
2022-11-24T05:49:17.015Z,0.15
2022-11-24T05:51:46.656Z,0.16
2022-11-24T05:54:14.994Z,0.19
2022-11-24T05:56:43.322Z,0.12
2022-11-24T05:59:11.730Z,0.13
2022-11-24T06:01:40.216Z,0.15
2022-11-24T06:04:08.612Z,0.15
2022-11-24T06:06:37.398Z,0.19
2022-11-24T06:09:07.106Z,0.15
2022-11-24T06:11:35.802Z,0.17
2022-11-24T06:14:08.292Z,0.08
2022-11-24T06:16:39.626Z,0.08
2022-11-24T06:19:08.114Z,0.07
2022-11-24T06:21:36.542Z,0.05
2022-11-24T06:24:05.359Z,-0.02
2022-11-24T06:26:35.036Z,0.01
2022-11-24T06:29:03.468Z,-0.01
2022-11-24T06:31:31.802Z,-0.04
2022-11-24T06:34:00.732Z,-0.06
2022-11-24T06:36:29.169Z,-0.09
2022-11-24T06:38:57.502Z,-0.08
2022-11-24T06:41:25.839Z,-0.10
2022-11-24T06:43:55.535Z,-0.11
2022-11-24T06:46:23.961Z,-0.12
2022-11-24T06:48:52.758Z,-0.12
2022-11-24T06:51:21.280Z,-0.12
2022-11-24T06:53:49.645Z,-0.12
2022-11-24T06:56:20.635Z,-0.11
2022-11-24T06:58:50.807Z,-0.10
2022-11-24T07:01:21.993Z,-0.10
2022-11-24T07:03:51.310Z,-0.08
2022-11-24T07:06:20.844Z,-0.06
2022-11-24T07:08:49.496Z,-0.08
2022-11-24T07:11:20.653Z,-0.11
2022-11-24T07:13:55.100Z,-0.09
2022-11-24T07:16:28.712Z,-0.04
2022-11-24T07:18:57.556Z,-0.03
2022-11-24T07:21:27.005Z,-0.01
2022-11-24T07:23:57.089Z,0.01
2022-11-24T07:26:25.760Z,-0.01
2022-11-24T07:28:54.136Z,0.00
2022-11-24T07:31:25.063Z,0.01
2022-11-24T07:33:56.492Z,0.07
2022-11-24T07:36:25.545Z,0.10
2022-11-24T07:38:53.842Z,0.13
2022-11-24T07:41:22.202Z,0.15
2022-11-24T07:43:51.691Z,0.13
2022-11-24T07:46:20.858Z,0.16
2022-11-24T07:48:49.518Z,0.16
2022-11-24T07:51:19.496Z,0.18
2022-11-24T07:53:48.093Z,0.21
2022-11-24T07:56:16.449Z,0.21
2022-11-24T07:58:49.677Z,0.23
2022-11-24T08:01:21.391Z,0.28
2022-11-24T08:03:50.028Z,0.30
2022-11-24T08:06:26.175Z,0.33
2022-11-24T08:08:57.721Z,0.36
2022-11-24T08:11:26.720Z,0.37
2022-11-24T08:13:55.211Z,0.41
2022-11-24T08:16:32.552Z,0.43
2022-11-24T08:19:01.105Z,0.45
2022-11-24T08:21:31.005Z,0.47
2022-11-24T08:23:59.525Z,0.49
2022-11-24T08:26:27.811Z,0.48
2022-11-24T08:28:58.219Z,0.49
2022-11-24T08:31:32.991Z,0.53
2022-11-24T08:34:03.534Z,0.57
2022-11-24T08:36:34.382Z,0.65
2022-11-24T08:39:03.474Z,0.60
2022-11-24T08:41:32.288Z,0.61
2022-11-24T08:44:00.620Z,0.66
2022-11-24T08:46:29.061Z,0.70
2022-11-24T08:48:57.471Z,0.71
2022-11-24T08:51:27.560Z,0.70
2022-11-24T08:53:58.902Z,0.69
2022-11-24T08:56:27.678Z,0.71
2022-11-24T08:58:56.496Z,0.76
2022-11-24T09:01:25.420Z,0.80
2022-11-24T09:03:54.080Z,0.80
2022-11-24T09:06:24.918Z,0.80
2022-11-24T09:08:54.553Z,0.83
2022-11-24T09:11:25.844Z,0.85
2022-11-24T09:13:55.022Z,0.87
2022-11-24T09:16:26.006Z,0.92
2022-11-24T09:18:59.200Z,0.97
2022-11-24T09:21:28.321Z,1.01
2022-11-24T09:23:57.069Z,1.00
2022-11-24T09:26:28.579Z,1.01
2022-11-24T09:28:58.039Z,1.01
2022-11-24T09:31:27.988Z,1.03
2022-11-24T09:33:56.710Z,1.09
2022-11-24T09:36:25.594Z,1.15
2022-11-24T09:38:54.183Z,1.15
2022-11-24T09:41:34.539Z,1.17
2022-11-24T09:44:14.836Z,1.19
2022-11-24T09:46:54.168Z,1.25
2022-11-24T09:49:30.787Z,1.27
2022-11-24T09:52:03.394Z,1.31
2022-11-24T09:54:34.053Z,1.32
2022-11-24T09:57:07.793Z,1.33
2022-11-24T09:59:36.740Z,1.39
2022-11-24T10:02:13.178Z,1.45
2022-11-24T10:04:44.059Z,1.46
2022-11-24T10:07:23.226Z,1.47
2022-11-24T10:10:03.226Z,1.51
2022-11-24T10:12:50.596Z,1.53
2022-11-24T10:15:38.934Z,1.60
2022-11-24T10:18:34.849Z,1.71
2022-11-24T10:21:30.961Z,1.84
2022-11-24T10:24:13.849Z,2.00
2022-11-24T10:26:52.313Z,2.08
2022-11-24T10:29:29.890Z,2.24
2022-11-24T10:31:58.868Z,2.44
2022-11-24T10:34:33.885Z,2.49
2022-11-24T10:37:08.273Z,2.58
2022-11-24T10:39:38.004Z,2.57
2022-11-24T10:42:12.340Z,2.57
2022-11-24T10:44:43.272Z,2.61
2022-11-24T10:47:20.189Z,2.55
2022-11-24T10:49:56.543Z,2.56
2022-11-24T10:52:26.006Z,2.55
2022-11-24T10:54:59.369Z,2.62
2022-11-24T10:57:33.497Z,2.69
2022-11-24T11:00:05.954Z,2.89
2022-11-24T11:02:37.686Z,2.97
2022-11-24T11:05:38.118Z,3.14
2022-11-24T11:08:19.743Z,3.14
2022-11-24T11:10:50.654Z,3.24
2022-11-24T11:13:24.506Z,3.29
2022-11-24T11:15:54.504Z,3.34
2022-11-24T11:18:26.472Z,3.31
2022-11-24T11:20:56.459Z,3.51
2022-11-24T11:23:28.857Z,3.63
2022-11-24T11:26:30.975Z,3.55
2022-11-24T11:35:07.559Z,3.55
2022-11-24T11:37:36.510Z,3.56
2022-11-24T11:40:15.927Z,3.55
2022-11-24T11:43:04.525Z,3.56
2022-11-24T11:45:36.724Z,3.54
2022-11-24T11:48:23.204Z,3.50
2022-11-24T11:53:49.930Z,3.78
2022-11-24T11:56:25.330Z,3.83
2022-11-24T11:59:31.806Z,3.91
2022-11-24T12:02:42.076Z,3.93
2022-11-24T12:05:19.973Z,3.99
2022-11-24T12:08:09.723Z,3.98
2022-11-24T12:10:46.101Z,3.99
2022-11-24T12:13:47.034Z,4.05
2022-11-24T12:16:30.879Z,4.09
2022-11-24T12:19:13.626Z,4.09
2022-11-24T12:21:50.044Z,4.09
2022-11-24T12:24:23.277Z,4.06
2022-11-24T12:26:56.638Z,4.11
2022-11-24T12:30:00.612Z,4.21
2022-11-24T12:33:00.820Z,4.24
2022-11-24T12:35:36.732Z,4.30
2022-11-24T12:38:19.581Z,4.36
2022-11-24T12:41:39.689Z,4.40
2022-11-24T12:44:01.699Z,4.47
2022-11-24T12:46:43.002Z,4.51
2022-11-24T12:49:21.575Z,4.53
2022-11-24T12:51:56.696Z,4.60
2022-11-24T12:54:32.833Z,4.62
2022-11-24T12:57:09.641Z,4.66
2022-11-24T12:59:45.356Z,4.65
2022-11-24T13:02:23.564Z,4.61
2022-11-24T13:04:59.699Z,4.62
2022-11-24T13:07:40.739Z,4.58
2022-11-24T13:10:55.732Z,4.60
2022-11-24T13:13:20.710Z,4.66
2022-11-24T13:19:10.082Z,4.72
2022-11-24T13:21:51.959Z,4.74
2022-11-24T13:24:30.710Z,4.76
2022-11-24T13:27:29.945Z,4.80
2022-11-24T13:29:58.507Z,4.81
2022-11-24T13:33:01.044Z,4.78
2022-11-24T13:35:30.080Z,4.76
2022-11-24T13:37:58.490Z,4.69
2022-11-24T13:40:59.897Z,4.63
2022-11-24T13:43:34.056Z,4.59
2022-11-24T13:46:03.758Z,4.57
2022-11-24T13:48:53.463Z,4.50
2022-11-24T13:51:25.619Z,4.46
2022-11-24T13:53:56.808Z,4.44
2022-11-24T13:56:28.084Z,4.42
2022-11-24T13:59:00.852Z,4.39
2022-11-24T14:01:31.409Z,4.39
2022-11-24T14:07:06.737Z,4.35
2022-11-24T14:09:41.733Z,4.37
2022-11-24T14:12:16.140Z,4.36
2022-11-24T14:14:47.665Z,4.37
2022-11-24T14:17:22.936Z,4.39
2022-11-24T14:19:53.414Z,4.40
2022-11-24T14:22:24.367Z,4.40
2022-11-24T14:24:55.240Z,4.39
2022-11-24T14:27:30.375Z,4.40
2022-11-24T14:30:02.024Z,4.43
2022-11-24T14:32:30.607Z,4.43
2022-11-24T14:34:58.998Z,4.43
2022-11-24T14:37:27.490Z,4.44
2022-11-24T14:39:56.042Z,4.45
2022-11-24T14:42:27.140Z,4.47
2022-11-24T14:44:58.657Z,4.47
2022-11-24T14:47:31.989Z,4.48
2022-11-24T14:50:10.656Z,4.46
2022-11-24T14:52:45.918Z,4.45
2022-11-24T14:55:28.585Z,4.42
2022-11-24T14:57:57.641Z,4.39
2022-11-24T15:00:31.010Z,4.37
2022-11-24T15:03:18.680Z,4.34
2022-11-24T15:05:58.585Z,4.32
2022-11-24T15:08:28.922Z,4.29
2022-11-24T15:11:00.341Z,4.23
2022-11-24T15:13:30.231Z,4.21
2022-11-24T15:16:03.264Z,4.21
2022-11-24T15:18:40.514Z,4.18
2022-11-24T15:21:12.850Z,4.14
2022-11-24T15:23:45.704Z,4.12
2022-11-24T15:26:36.912Z,4.05
2022-11-24T15:29:08.555Z,4.03
2022-11-24T15:31:37.701Z,4.01
2022-11-24T15:34:08.094Z,4.00
2022-11-24T15:36:36.513Z,3.98
2022-11-24T15:39:04.913Z,3.94
2022-11-24T15:41:34.689Z,3.93
2022-11-24T15:44:03.165Z,3.89
2022-11-24T15:46:37.798Z,3.88
2022-11-24T15:49:08.355Z,3.86
2022-11-24T15:51:45.575Z,3.84
2022-11-24T15:54:17.132Z,3.81
2022-11-24T15:56:45.694Z,3.79
2022-11-24T15:59:20.253Z,3.78
2022-11-24T16:01:49.845Z,3.73
2022-11-24T16:04:20.101Z,3.73
2022-11-24T16:06:48.481Z,3.71
2022-11-24T16:09:17.822Z,3.72
2022-11-24T16:11:46.230Z,3.70
2022-11-24T16:14:14.739Z,3.69
2022-11-24T16:16:43.291Z,3.65
2022-11-24T16:19:12.269Z,3.63
2022-11-24T16:21:42.028Z,3.62
2022-11-24T16:24:10.631Z,3.61
2022-11-24T16:26:39.002Z,3.60
2022-11-24T16:29:07.582Z,3.61
2022-11-24T16:31:36.160Z,3.55
2022-11-24T16:34:04.648Z,3.57
2022-11-24T16:36:33.012Z,3.57
2022-11-24T16:39:02.916Z,3.57
2022-11-24T16:41:31.462Z,3.55
2022-11-24T16:43:59.821Z,3.56
2022-11-24T16:46:28.323Z,3.57
2022-11-24T16:49:00.959Z,3.56
2022-11-24T16:51:34.414Z,3.55
2022-11-24T16:54:05.069Z,3.52
2022-11-24T16:56:33.718Z,3.49
2022-11-24T16:59:02.291Z,3.48
2022-11-24T17:01:32.885Z,3.46
2022-11-24T17:04:01.714Z,3.45
2022-11-24T17:06:30.230Z,3.44
2022-11-24T17:08:58.689Z,3.43
2022-11-24T17:11:29.861Z,3.44
2022-11-24T17:13:58.717Z,3.43
2022-11-24T17:16:28.318Z,3.40
2022-11-24T17:18:58.633Z,3.39
2022-11-24T17:21:28.270Z,3.36
2022-11-24T17:23:57.517Z,3.35
2022-11-24T17:26:26.465Z,3.32
2022-11-24T17:28:56.536Z,3.31
2022-11-24T17:31:28.258Z,3.29
2022-11-24T17:33:58.515Z,3.28
2022-11-24T17:36:27.708Z,3.28
2022-11-24T17:38:56.090Z,3.28
2022-11-24T17:41:24.562Z,3.27
2022-11-24T17:43:55.481Z,3.27
2022-11-24T17:46:26.513Z,3.24
2022-11-24T17:48:55.325Z,3.23
2022-11-24T17:51:25.631Z,3.23
2022-11-24T17:53:56.092Z,3.22
2022-11-24T17:56:27.055Z,3.22
2022-11-24T17:58:56.533Z,3.23
2022-11-24T18:01:28.588Z,3.23
2022-11-24T18:03:57.236Z,3.25
2022-11-24T18:06:26.091Z,3.28
2022-11-24T18:08:55.096Z,3.28
2022-11-24T18:11:30.556Z,3.33
2022-11-24T18:14:02.191Z,3.33
2022-11-24T18:16:34.141Z,3.35
2022-11-24T18:19:09.928Z,3.32
2022-11-24T18:21:39.504Z,3.33
2022-11-24T18:24:08.478Z,3.34
2022-11-24T18:26:37.227Z,3.30
2022-11-24T18:29:08.517Z,3.35
2022-11-24T18:31:39.763Z,3.32
2022-11-24T18:34:08.705Z,3.33
2022-11-24T18:36:37.541Z,3.30
2022-11-24T18:39:07.729Z,3.31
2022-11-24T18:41:36.639Z,3.32
2022-11-24T18:44:08.480Z,3.29
2022-11-24T18:46:37.422Z,3.29
2022-11-24T18:49:07.625Z,3.26
2022-11-24T18:51:36.047Z,3.24
2022-11-24T18:54:05.317Z,3.23
2022-11-24T18:56:34.025Z,3.22
2022-11-24T18:59:02.395Z,3.20
2022-11-24T19:01:31.158Z,3.20
2022-11-24T19:04:02.007Z,3.19
2022-11-24T19:06:34.862Z,3.17
2022-11-24T19:09:06.709Z,3.17
2022-11-24T19:11:38.044Z,3.17
2022-11-24T19:14:10.145Z,3.17
2022-11-24T19:16:41.366Z,3.18
2022-11-24T19:19:11.671Z,3.15
2022-11-24T19:21:44.397Z,3.13
2022-11-24T19:24:14.363Z,3.11
2022-11-24T19:26:42.759Z,3.10
2022-11-24T19:29:11.131Z,3.06
2022-11-24T19:31:40.335Z,3.04
2022-11-24T19:34:08.977Z,3.00
2022-11-24T19:36:43.179Z,2.97
2022-11-24T19:39:18.255Z,2.92
2022-11-24T19:41:47.022Z,2.88
2022-11-24T19:44:15.669Z,2.84
2022-11-24T19:46:44.064Z,2.79
2022-11-24T19:49:12.555Z,2.77
2022-11-24T19:51:42.289Z,2.72
2022-11-24T19:54:12.785Z,2.68
2022-11-24T19:56:43.765Z,2.66
2022-11-24T19:59:17.845Z,2.64
2022-11-24T20:01:49.385Z,2.62
2022-11-24T20:04:18.423Z,2.59
2022-11-24T20:06:49.455Z,2.57
2022-11-24T20:09:19.407Z,2.53
2022-11-24T20:11:48.596Z,2.50
2022-11-24T20:14:19.116Z,2.49
2022-11-24T20:16:47.841Z,2.45
2022-11-24T20:19:17.922Z,2.40
2022-11-24T20:21:49.908Z,2.40
2022-11-24T20:24:20.384Z,2.39
2022-11-24T20:26:52.087Z,2.40
2022-11-24T20:29:20.900Z,2.39
2022-11-24T20:31:51.153Z,2.35
2022-11-24T20:34:20.273Z,2.34
2022-11-24T20:36:50.402Z,2.32
2022-11-24T20:39:20.562Z,2.29
2022-11-24T20:41:49.854Z,2.30
2022-11-24T20:44:21.303Z,2.28
2022-11-24T20:46:50.586Z,2.21
2022-11-24T20:49:21.840Z,2.14
2022-11-24T20:51:54.466Z,2.02
2022-11-24T20:54:23.417Z,1.91
2022-11-24T20:56:51.870Z,1.82
2022-11-24T20:59:22.709Z,1.74
2022-11-24T21:01:55.096Z,1.71
2022-11-24T21:04:26.373Z,1.67
2022-11-24T21:06:56.347Z,1.63
2022-11-24T21:09:27.143Z,1.60
2022-11-24T21:11:55.734Z,1.61
2022-11-24T21:14:24.810Z,1.60
2022-11-24T21:16:53.188Z,1.59
2022-11-24T21:19:21.556Z,1.57
2022-11-24T21:21:50.183Z,1.53
2022-11-24T21:24:21.462Z,1.53
2022-11-24T21:26:52.810Z,1.52
2022-11-24T21:29:23.462Z,1.49
2022-11-24T21:31:52.687Z,1.45
2022-11-24T21:34:21.274Z,1.45
2022-11-24T21:36:49.666Z,1.49
2022-11-24T21:39:19.445Z,1.54
2022-11-24T21:41:48.084Z,1.57
2022-11-24T21:44:16.617Z,1.58
2022-11-24T21:46:51.095Z,1.62
2022-11-24T21:49:22.658Z,1.60
2022-11-24T21:51:55.952Z,1.59
2022-11-24T21:54:25.772Z,1.57
2022-11-24T21:56:55.425Z,1.58
2022-11-24T21:59:23.933Z,1.58
2022-11-24T22:01:52.289Z,1.55
2022-11-24T22:04:20.854Z,1.55
2022-11-24T22:06:49.236Z,1.55
2022-11-24T22:09:18.387Z,1.58
2022-11-24T22:11:49.280Z,1.61
2022-11-24T22:14:17.819Z,1.68
2022-11-24T22:16:46.247Z,1.70
2022-11-24T22:19:14.657Z,1.70
2022-11-24T22:21:43.134Z,1.72
2022-11-24T22:24:11.871Z,1.73
2022-11-24T22:26:40.228Z,1.75
2022-11-24T22:29:09.988Z,1.75
2022-11-24T22:31:38.401Z,1.75
2022-11-24T22:34:06.974Z,1.75
2022-11-24T22:36:36.640Z,1.75
2022-11-24T22:39:06.977Z,1.75
2022-11-24T22:41:36.855Z,1.75
2022-11-24T22:44:05.998Z,1.75
2022-11-24T22:46:35.685Z,1.76
2022-11-24T22:49:04.061Z,1.79
2022-11-24T22:51:33.966Z,1.82
2022-11-24T22:54:04.090Z,1.83
2022-11-24T22:56:33.272Z,1.83
2022-11-24T22:59:02.490Z,1.88
2022-11-24T23:01:32.158Z,1.90
2022-11-24T23:04:03.638Z,1.92
2022-11-24T23:06:33.649Z,1.92
2022-11-24T23:09:03.396Z,1.92
2022-11-24T23:11:37.650Z,1.95
2022-11-24T23:14:08.006Z,1.97
2022-11-24T23:16:36.484Z,1.99
2022-11-24T23:19:06.569Z,1.99
2022-11-24T23:21:38.237Z,1.96
2022-11-24T23:24:08.062Z,1.94
2022-11-24T23:26:38.209Z,1.92
2022-11-24T23:29:07.347Z,1.93
2022-11-24T23:31:36.372Z,1.92
2022-11-24T23:34:06.872Z,1.93
2022-11-24T23:36:35.190Z,1.92
2022-11-24T23:39:04.513Z,1.93
2022-11-24T23:41:33.238Z,1.93
2022-11-24T23:44:01.665Z,1.98
2022-11-24T23:46:30.104Z,1.98
2022-11-24T23:48:58.680Z,1.99
2022-11-24T23:51:30.458Z,1.99
2022-11-24T23:54:00.136Z,1.99
2022-11-24T23:56:32.228Z,2.01
2022-11-24T23:59:00.688Z,2.05
